createdAt,value
2023-05-01T00:14:39.092Z,53.5
2023-05-01T00:34:39.092Z,53.5
2023-05-01T00:54:39.009Z,53.4
2023-05-01T01:14:38.983Z,53.3
2023-05-01T01:34:39.075Z,53.3
2023-05-01T01:54:39.025Z,53.1
2023-05-01T02:14:39.019Z,53.1
2023-05-01T02:34:38.852Z,53.1
2023-05-01T02:54:38.889Z,53.1
2023-05-01T03:14:38.866Z,53.0
2023-05-01T03:34:38.899Z,53.0
2023-05-01T03:54:38.807Z,53.0
2023-05-01T04:14:38.818Z,53.0
2023-05-01T04:34:38.774Z,53.0
2023-05-01T04:54:38.718Z,53.0
2023-05-01T05:14:38.670Z,53.0
2023-05-01T05:34:38.675Z,53.1
2023-05-01T05:54:38.709Z,53.2
2023-05-01T06:14:38.621Z,53.3
2023-05-01T06:34:38.659Z,53.3
2023-05-01T06:54:38.552Z,53.4
2023-05-01T07:14:38.670Z,53.4
2023-05-01T07:34:38.486Z,53.5
2023-05-01T07:54:38.458Z,53.5
2023-05-01T08:14:38.431Z,53.5
2023-05-01T08:34:38.432Z,53.5
2023-05-01T08:54:38.424Z,53.5
2023-05-01T09:14:38.372Z,53.5
2023-05-01T09:34:38.344Z,53.5
2023-05-01T09:54:38.413Z,53.4
2023-05-01T10:14:38.462Z,53.4
2023-05-01T10:34:38.307Z,53.4
2023-05-01T10:54:38.336Z,53.4
2023-05-01T11:14:38.285Z,53.4
2023-05-01T11:34:38.225Z,53.4
2023-05-01T11:54:38.181Z,53.4
2023-05-01T12:14:38.285Z,53.4
2023-05-01T12:34:38.233Z,53.5
2023-05-01T12:54:38.121Z,53.5
2023-05-01T13:14:38.103Z,53.5
2023-05-01T13:34:38.048Z,53.5
2023-05-01T13:54:38.039Z,53.5
2023-05-01T14:14:38.034Z,53.5
2023-05-01T14:34:37.990Z,53.5
2023-05-01T14:54:38.064Z,53.5
2023-05-01T15:14:37.958Z,53.5
2023-05-01T15:34:37.953Z,53.6
2023-05-01T15:54:37.951Z,53.6
2023-05-01T16:14:37.884Z,53.6
2023-05-01T16:34:37.814Z,53.5
2023-05-01T16:54:37.872Z,53.7
2023-05-01T17:14:37.789Z,53.6
2023-05-01T17:34:37.831Z,53.6
2023-05-01T17:54:37.785Z,53.9
2023-05-01T18:14:37.769Z,54.0
2023-05-01T18:34:37.670Z,54.4
2023-05-01T18:54:37.685Z,54.6
2023-05-01T19:14:37.660Z,54.1
2023-05-01T19:34:37.614Z,54.0
2023-05-01T19:54:37.678Z,53.9
2023-05-01T20:14:37.626Z,54.0
2023-05-01T20:34:37.597Z,53.9
2023-05-01T20:54:37.529Z,54.0
2023-05-01T21:14:37.524Z,53.9
2023-05-01T21:34:37.520Z,53.9
2023-05-01T21:54:37.432Z,53.9
2023-05-01T22:14:37.423Z,53.8
2023-05-01T22:34:37.393Z,53.8
2023-05-01T22:54:37.395Z,53.8
2023-05-01T23:14:37.372Z,53.9
2023-05-01T23:34:37.356Z,53.9
2023-05-01T23:54:37.292Z,53.9
